createdAt,value
2022-08-28T00:00:30.592Z,21.84
2022-08-28T00:02:59.086Z,21.63
2022-08-28T00:05:29.836Z,21.58
2022-08-28T00:07:59.108Z,21.93
2022-08-28T00:10:27.390Z,22.18
2022-08-28T00:12:57.467Z,22.20
2022-08-28T00:15:29.873Z,22.46
2022-08-28T00:17:57.457Z,22.67
2022-08-28T00:20:26.770Z,22.64
2022-08-28T00:22:55.616Z,22.42
2022-08-28T00:25:25.544Z,21.90
2022-08-28T00:27:56.832Z,21.99
2022-08-28T00:30:31.794Z,22.52
2022-08-28T00:33:21.368Z,22.86
2022-08-28T00:35:49.904Z,22.49
2022-08-28T00:38:21.205Z,22.50
2022-08-28T00:40:52.337Z,21.82
2022-08-28T00:43:25.533Z,21.90
2022-08-28T00:45:53.374Z,22.18
2022-08-28T00:48:21.144Z,22.71
2022-08-28T00:51:08.028Z,22.81
2022-08-28T00:53:35.547Z,22.78
2022-08-28T00:56:12.823Z,22.38
2022-08-28T00:58:45.010Z,22.81
2022-08-28T01:01:13.031Z,22.26
2022-08-28T01:03:41.285Z,22.49
2022-08-28T01:06:08.914Z,22.81
2022-08-28T01:08:38.998Z,22.66
2022-08-28T01:11:07.934Z,22.16
2022-08-28T01:13:39.602Z,22.08
2022-08-28T01:16:08.373Z,22.25
2022-08-28T01:18:35.880Z,22.04
2022-08-28T01:21:43.411Z,22.11
2022-08-28T01:24:16.092Z,22.54
2022-08-28T01:26:44.433Z,22.65
2022-08-28T01:29:12.527Z,22.65
2022-08-28T01:31:42.901Z,22.49
2022-08-28T01:34:13.098Z,22.24
2022-08-28T01:36:41.295Z,22.75
2022-08-28T01:39:15.888Z,22.95
2022-08-28T01:41:48.381Z,23.02
2022-08-28T01:44:18.155Z,22.82
2022-08-28T01:46:46.562Z,22.53
2022-08-28T01:49:14.054Z,22.39
2022-08-28T01:51:43.040Z,22.37
2022-08-28T01:54:11.960Z,22.40
2022-08-28T01:56:44.608Z,22.44
2022-08-28T01:59:12.881Z,22.30
2022-08-28T02:01:42.966Z,21.91
2022-08-28T02:04:11.123Z,21.91
2022-08-28T02:06:38.529Z,21.63
2022-08-28T02:09:07.050Z,21.86
2022-08-28T02:11:46.737Z,21.63
2022-08-28T02:14:14.957Z,21.96
2022-08-28T02:16:43.454Z,22.15
2022-08-28T02:19:12.164Z,22.35
2022-08-28T02:21:40.145Z,21.89
2022-08-28T02:24:08.705Z,21.58
2022-08-28T02:26:36.166Z,21.59
2022-08-28T02:29:04.265Z,21.62
2022-08-28T02:31:32.116Z,21.70
2022-08-28T02:33:59.589Z,21.64
2022-08-28T02:36:27.000Z,21.64
2022-08-28T02:38:57.722Z,21.67
2022-08-28T02:41:28.395Z,21.82
2022-08-28T02:43:56.372Z,21.68
2022-08-28T02:46:25.443Z,21.63
2022-08-28T02:48:54.018Z,21.42
2022-08-28T02:51:22.138Z,21.08
2022-08-28T02:53:50.465Z,21.13
2022-08-28T02:56:18.321Z,21.25
2022-08-28T02:58:45.787Z,20.98
2022-08-28T03:01:15.068Z,20.62
2022-08-28T03:03:43.126Z,20.94
2022-08-28T03:06:15.409Z,20.90
2022-08-28T03:08:45.249Z,21.05
2022-08-28T03:11:13.141Z,21.15
2022-08-28T03:13:41.949Z,20.85
2022-08-28T03:16:09.905Z,21.11
2022-08-28T03:18:37.465Z,21.26
2022-08-28T03:21:05.877Z,21.41
2022-08-28T03:23:33.277Z,21.13
2022-08-28T03:26:09.713Z,20.64
2022-08-28T03:28:40.917Z,20.82
2022-08-28T03:31:12.426Z,21.03
2022-08-28T03:33:41.963Z,20.95
2022-08-28T03:36:12.889Z,20.93
2022-08-28T03:38:41.924Z,21.10
2022-08-28T03:41:14.223Z,20.80
2022-08-28T03:43:41.955Z,20.77
2022-08-28T03:46:13.749Z,20.98
2022-08-28T03:48:44.820Z,21.05
2022-08-28T03:51:15.902Z,21.05
2022-08-28T03:53:45.446Z,20.92
2022-08-28T03:56:16.850Z,20.53
2022-08-28T03:58:44.827Z,20.63
2022-08-28T04:01:12.793Z,21.05
2022-08-28T04:03:43.552Z,21.21
2022-08-28T04:06:18.919Z,20.91
2022-08-28T04:08:54.814Z,20.41
2022-08-28T04:11:30.410Z,20.23
2022-08-28T04:13:58.236Z,20.38
2022-08-28T04:17:02.048Z,20.59
2022-08-28T04:19:30.381Z,20.71
2022-08-28T04:21:58.064Z,20.70
2022-08-28T04:24:25.928Z,21.08
2022-08-28T04:26:57.168Z,20.96
2022-08-28T04:29:24.992Z,21.13
2022-08-28T04:31:57.292Z,20.97
2022-08-28T04:34:29.701Z,20.89
2022-08-28T04:36:58.558Z,20.77
2022-08-28T04:39:33.113Z,20.77
2022-08-28T04:42:01.336Z,20.73
2022-08-28T04:44:29.129Z,20.78
2022-08-28T04:46:59.098Z,20.82
2022-08-28T04:49:29.196Z,20.93
2022-08-28T04:51:59.916Z,20.27
2022-08-28T04:54:30.335Z,19.99
2022-08-28T04:56:58.318Z,20.13
2022-08-28T04:59:32.699Z,20.52
2022-08-28T05:02:02.784Z,20.89
2022-08-28T05:04:35.818Z,20.92
2022-08-28T05:07:58.208Z,21.17
2022-08-28T05:10:26.549Z,21.15
2022-08-28T05:12:54.908Z,21.23
2022-08-28T05:15:29.370Z,21.33
2022-08-28T05:17:57.130Z,21.33
2022-08-28T05:20:36.621Z,21.51
2022-08-28T05:23:08.269Z,21.50
2022-08-28T05:25:39.844Z,21.32
2022-08-28T05:28:32.605Z,21.20
2022-08-28T05:31:12.768Z,21.13
2022-08-28T05:33:42.863Z,21.45
2022-08-28T05:36:19.175Z,21.88
2022-08-28T05:38:53.367Z,21.98
2022-08-28T05:41:30.194Z,21.71
2022-08-28T05:44:09.628Z,22.14
2022-08-28T05:46:43.226Z,22.27
2022-08-28T05:49:14.617Z,22.53
2022-08-28T05:51:42.930Z,22.49
2022-08-28T05:55:02.530Z,22.93
2022-08-28T05:57:37.627Z,23.37
2022-08-28T06:00:13.489Z,23.58
2022-08-28T06:02:44.521Z,23.53
2022-08-28T06:05:17.195Z,23.55
2022-08-28T06:07:50.360Z,23.58
2022-08-28T06:13:34.981Z,24.07
2022-08-28T06:16:12.946Z,24.05
2022-08-28T06:18:42.796Z,24.28
2022-08-28T06:21:12.873Z,24.66
2022-08-28T06:23:42.814Z,24.49
2022-08-28T06:26:14.434Z,24.57
2022-08-28T06:28:47.171Z,24.71
2022-08-28T06:35:36.483Z,24.24
2022-08-28T06:38:04.470Z,24.59
2022-08-28T06:40:57.831Z,24.47
2022-08-28T06:43:28.807Z,25.47
2022-08-28T06:46:03.331Z,25.07
2022-08-28T06:48:39.482Z,25.78
2022-08-28T06:51:16.198Z,26.58
2022-08-28T06:54:34.820Z,27.87
2022-08-28T06:57:14.115Z,28.94
2022-08-28T06:59:58.098Z,28.69
2022-08-28T07:02:33.643Z,30.53
2022-08-28T07:05:12.288Z,28.91
2022-08-28T07:07:42.238Z,28.34
2022-08-28T07:10:16.344Z,29.43
2022-08-28T07:12:48.658Z,30.67
2022-08-28T07:15:19.531Z,30.52
2022-08-28T07:17:49.618Z,31.48
2022-08-28T07:21:33.078Z,29.89
2022-08-28T07:28:08.202Z,29.84
2022-08-28T07:30:36.052Z,27.63
2022-08-28T07:33:11.013Z,27.59
2022-08-28T07:35:44.224Z,28.89
2022-08-28T07:38:15.464Z,31.19
2022-08-28T07:40:46.270Z,30.95
2022-08-28T07:43:35.483Z,32.08
2022-08-28T07:46:10.798Z,33.32
2022-08-28T07:48:48.356Z,32.01
2022-08-28T07:51:23.497Z,30.11
2022-08-28T07:53:59.393Z,30.50
2022-08-28T07:56:30.237Z,33.60
2022-08-28T07:59:06.005Z,35.18
2022-08-28T08:01:44.663Z,33.71
2022-08-28T08:04:17.570Z,34.76
2022-08-28T08:06:46.967Z,34.51
2022-08-28T08:09:22.258Z,33.02
2022-08-28T08:11:56.298Z,31.72
2022-08-28T08:14:25.734Z,31.05
2022-08-28T08:17:02.407Z,29.53
2022-08-28T08:19:35.341Z,30.16
2022-08-28T08:22:03.381Z,31.72
2022-08-28T08:24:30.989Z,32.59
2022-08-28T08:27:11.517Z,32.39
2022-08-28T08:29:39.391Z,32.39
2022-08-28T08:32:12.639Z,35.81
2022-08-28T08:35:36.593Z,37.58
2022-08-28T08:38:06.256Z,35.95
2022-08-28T08:40:36.515Z,35.27
2022-08-28T08:43:08.893Z,34.73
2022-08-28T08:46:14.916Z,34.57
2022-08-28T08:48:52.268Z,36.35
2022-08-28T08:55:32.952Z,35.44
2022-08-28T08:58:55.350Z,35.10
2022-08-28T09:01:50.975Z,36.37
2022-08-28T09:04:34.105Z,33.85
2022-08-28T09:07:08.104Z,33.98
2022-08-28T09:09:41.086Z,36.21
2022-08-28T09:12:44.383Z,37.35
2022-08-28T09:15:27.744Z,37.55
2022-08-28T09:18:13.823Z,34.33
2022-08-28T09:20:52.378Z,36.40
2022-08-28T09:23:24.727Z,37.35
2022-08-28T09:26:16.690Z,36.78
2022-08-28T09:29:05.396Z,37.95
2022-08-28T09:32:27.243Z,37.82
2022-08-28T09:35:24.948Z,33.65
2022-08-28T09:37:53.740Z,34.45
2022-08-28T09:40:52.478Z,34.48
2022-08-28T09:44:23.370Z,33.99
2022-08-28T09:46:56.398Z,32.83
2022-08-28T09:49:29.476Z,33.64
2022-08-28T09:52:25.358Z,34.22
2022-08-28T09:59:39.812Z,34.36
2022-08-28T10:02:45.624Z,31.97
2022-08-28T10:05:16.802Z,33.15
2022-08-28T10:08:21.349Z,32.33
2022-08-28T10:10:56.845Z,31.32
2022-08-28T10:18:37.947Z,31.57
2022-08-28T10:47:22.226Z,33.21
2022-08-28T10:49:53.686Z,32.70
2022-08-28T10:52:28.801Z,33.06
2022-08-28T10:56:03.268Z,32.36
2022-08-28T10:59:16.398Z,31.25
2022-08-28T11:06:37.224Z,31.30
2022-08-28T11:09:26.917Z,31.58
2022-08-28T11:35:26.154Z,30.86
2022-08-28T11:37:58.284Z,31.53
2022-08-28T11:40:28.639Z,31.27
2022-08-28T12:07:00.686Z,32.87
2022-08-28T12:09:40.320Z,32.87
2022-08-28T12:27:03.708Z,33.53
2022-08-28T12:29:43.982Z,33.38
2022-08-28T12:32:40.295Z,33.05
2022-08-28T12:35:19.320Z,32.89
2022-08-28T12:42:55.055Z,32.57
2022-08-28T12:45:52.164Z,31.89
2022-08-28T12:53:02.803Z,32.49
2022-08-28T13:14:07.394Z,31.33
2022-08-28T13:16:53.221Z,31.90
2022-08-28T13:19:36.784Z,31.82
2022-08-28T13:22:34.719Z,31.65
2022-08-28T13:29:24.541Z,32.64
2022-08-28T13:45:36.311Z,32.51
2022-08-28T13:50:34.213Z,31.79
2022-08-28T13:54:42.553Z,32.08
2022-08-28T14:11:15.785Z,33.02
2022-08-28T14:14:13.113Z,32.83
2022-08-28T14:16:41.221Z,32.94
2022-08-28T14:19:37.180Z,33.15
2022-08-28T14:26:39.130Z,32.26
2022-08-28T14:29:42.781Z,32.63
2022-08-28T14:32:10.715Z,32.67
2022-08-28T14:35:28.474Z,32.70
2022-08-28T14:48:20.191Z,32.80
2022-08-28T14:50:48.508Z,32.29
2022-08-28T15:02:31.453Z,32.61
2022-08-28T15:23:57.375Z,32.38
2022-08-28T15:27:09.686Z,32.20
2022-08-28T15:34:27.476Z,32.04
2022-08-28T15:36:56.699Z,32.20
2022-08-28T15:39:46.222Z,31.63
2022-08-28T15:42:14.994Z,31.60
2022-08-28T15:49:23.919Z,31.46
2022-08-28T16:10:14.627Z,30.63
2022-08-28T16:12:42.684Z,30.50
2022-08-28T16:15:12.310Z,30.98
2022-08-28T16:17:40.049Z,30.75
2022-08-28T16:20:12.345Z,30.93
2022-08-28T16:40:56.790Z,30.78
2022-08-28T17:02:01.607Z,30.78
2022-08-28T17:04:29.354Z,30.61
2022-08-28T17:07:06.704Z,30.34
2022-08-28T17:09:57.884Z,30.39
2022-08-28T17:12:50.685Z,30.47
2022-08-28T17:16:13.530Z,30.38
2022-08-28T17:23:18.201Z,30.73
2022-08-28T17:26:06.269Z,30.26
2022-08-28T17:33:07.844Z,29.34
2022-08-28T17:35:40.299Z,29.17
2022-08-28T17:38:17.343Z,28.98
2022-08-28T17:54:30.522Z,28.55
2022-08-28T17:58:13.687Z,28.65
2022-08-28T18:09:53.145Z,28.96
2022-08-28T18:12:23.657Z,28.20
2022-08-28T18:14:51.353Z,27.93
2022-08-28T18:35:49.591Z,27.70
2022-08-28T18:55:45.870Z,27.69
2022-08-28T19:08:14.265Z,27.66
2022-08-28T19:10:42.995Z,27.22
2022-08-28T19:17:51.154Z,27.49
2022-08-28T19:20:20.758Z,27.33
2022-08-28T19:22:48.964Z,27.28
2022-08-28T19:25:27.474Z,27.48
2022-08-28T19:27:59.252Z,27.40
2022-08-28T19:30:33.394Z,26.89
2022-08-28T19:33:03.955Z,27.09
2022-08-28T19:35:34.794Z,27.34
2022-08-28T19:38:05.360Z,27.14
2022-08-28T19:40:33.758Z,27.38
2022-08-28T19:43:01.804Z,27.11
2022-08-28T20:00:05.050Z,27.08
2022-08-28T20:02:32.769Z,27.07
2022-08-28T20:09:36.147Z,27.52
2022-08-28T20:12:04.365Z,27.05
2022-08-28T20:14:31.992Z,26.87
2022-08-28T20:30:47.164Z,27.44
2022-08-28T20:33:17.967Z,27.08
2022-08-28T20:35:45.924Z,27.41
2022-08-28T20:56:54.016Z,26.11
2022-08-28T21:18:01.941Z,26.04
2022-08-28T21:34:38.010Z,25.16
2022-08-28T21:37:06.447Z,25.18
2022-08-28T21:44:52.040Z,25.14
2022-08-28T21:48:48.465Z,25.02
2022-08-28T21:56:24.828Z,25.11
2022-08-28T21:58:56.627Z,25.21
2022-08-28T22:10:40.593Z,24.53
2022-08-28T22:13:58.375Z,24.95
2022-08-28T22:21:45.132Z,25.35
2022-08-28T22:24:15.345Z,25.06
2022-08-28T22:26:46.329Z,25.00
2022-08-28T22:29:14.035Z,25.25
2022-08-28T22:31:46.004Z,25.07
2022-08-28T22:34:14.796Z,25.50
2022-08-28T22:36:45.383Z,25.80
2022-08-28T22:39:13.100Z,25.53
2022-08-28T22:41:43.374Z,25.12
2022-08-28T22:57:56.189Z,24.85
2022-08-28T23:00:28.297Z,24.83
2022-08-28T23:07:46.634Z,25.00
2022-08-28T23:19:26.350Z,24.70
2022-08-28T23:22:43.854Z,25.18
2022-08-28T23:29:47.706Z,25.53
2022-08-28T23:32:21.831Z,25.66
2022-08-28T23:34:49.632Z,25.38
2022-08-28T23:37:23.918Z,25.25
2022-08-28T23:39:51.717Z,24.71
